Oxford, Massachusetts
Current Conditions -  °F | °C
As of 6:54 AM on Thursday 23 Oct 2014 (Local Time) from KORH Reporting Station
Light Rain Light Rain  
Wind Chill: 39°   Ceiling: 600
Heat Index: 46°   Visibility: 9mi
Dew Point: 44°   Wind: 18mph
Humidity: 93%   Direction: 20°NNE
Pressure: 29.7"   Gusts: 28mph
Location:  42.12°N, 71.86°W
Report Text: KORH 231054Z 02016G24KT 9SM -RA BKN006 08/07 A2970 RMK AO2 PK WND 35030/1014 SLP063 P0009 T00780067
Loading
Personal Weather Stations






























Interactive Weather Map
Tropical Storm Tracking
New forecast layout! Learn more

10-Day Weather Forecast

Advertisements
Track Severe Weather on mobile